createdAt,value
2019-02-06T00:01:06.957Z,69.97
2019-02-06T00:03:38.596Z,66.23
2019-02-06T00:06:10.266Z,64.83
2019-02-06T00:08:41.917Z,69.70
2019-02-06T00:11:13.972Z,71.10
2019-02-06T00:13:46.015Z,68.20
2019-02-06T00:16:17.752Z,75.70
2019-02-06T00:18:49.914Z,69.87
2019-02-06T00:21:21.569Z,70.13
2019-02-06T00:23:53.338Z,72.70
2019-02-06T00:26:24.981Z,71.13
2019-02-06T00:28:57.002Z,72.70
2019-02-06T00:31:29.047Z,75.57
2019-02-06T00:34:00.765Z,70.20
2019-02-06T00:36:32.429Z,71.93
2019-02-06T00:39:06.688Z,68.77
2019-02-06T00:41:38.370Z,79.97
2019-02-06T00:44:10.030Z,77.80
2019-02-06T00:46:41.848Z,73.90
2019-02-06T00:49:13.885Z,80.37
2019-02-06T00:51:45.528Z,79.00
2019-02-06T00:54:17.184Z,73.07
2019-02-06T00:56:48.823Z,77.03
2019-02-06T00:59:20.483Z,83.90
2019-02-06T01:01:52.622Z,93.17
2019-02-06T01:04:24.769Z,87.53
2019-02-06T01:06:56.419Z,85.93
2019-02-06T01:09:28.226Z,88.40
2019-02-06T01:11:59.891Z,89.70
2019-02-06T01:14:32.052Z,79.83
2019-02-06T01:17:03.721Z,81.57
2019-02-06T01:19:35.387Z,90.00
2019-02-06T01:22:07.040Z,91.13
2019-02-06T01:24:38.697Z,90.47
2019-02-06T01:27:10.691Z,80.70
2019-02-06T01:29:42.371Z,92.30
2019-02-06T01:32:14.016Z,83.53
2019-02-06T01:34:45.682Z,90.33
2019-02-06T01:37:17.493Z,86.43
2019-02-06T01:39:49.587Z,87.30
2019-02-06T01:42:21.273Z,85.73
2019-02-06T01:44:53.411Z,78.80
2019-02-06T01:47:25.465Z,78.10
2019-02-06T01:49:57.338Z,81.57
2019-02-06T01:52:29.085Z,80.50
2019-02-06T01:55:01.108Z,78.43
2019-02-06T01:57:33.246Z,72.93
2019-02-06T02:00:21.692Z,74.90
2019-02-06T02:02:53.350Z,74.57
2019-02-06T02:05:25.070Z,80.47
2019-02-06T02:07:56.796Z,81.07
2019-02-06T02:10:28.827Z,77.90
2019-02-06T02:13:00.492Z,79.43
2019-02-06T02:15:32.289Z,80.53
2019-02-06T02:18:04.585Z,80.50
2019-02-06T02:20:36.253Z,81.10
2019-02-06T02:23:07.905Z,79.33
2019-02-06T02:25:39.564Z,70.10
2019-02-06T02:28:11.217Z,77.07
2019-02-06T02:30:44.526Z,84.70
2019-02-06T02:33:16.201Z,79.97
2019-02-06T02:35:47.846Z,80.40
2019-02-06T02:38:21.143Z,75.90
2019-02-06T02:40:52.885Z,76.13
2019-02-06T02:43:24.840Z,64.97
2019-02-06T02:45:56.829Z,65.30
2019-02-06T02:48:29.094Z,68.37
2019-02-06T02:51:00.805Z,77.93
2019-02-06T02:53:32.964Z,70.30
2019-02-06T02:56:04.642Z,69.50
2019-02-06T02:58:36.312Z,72.97
2019-02-06T03:01:21.810Z,73.77
2019-02-06T03:03:58.639Z,70.93
2019-02-06T03:06:30.284Z,68.23
2019-02-06T03:09:01.942Z,68.00
2019-02-06T03:11:33.593Z,68.90
2019-02-06T03:14:05.256Z,60.63
2019-02-06T03:16:37.001Z,70.00
2019-02-06T03:19:08.645Z,70.17
2019-02-06T03:21:40.318Z,74.80
2019-02-06T03:24:11.959Z,69.37
2019-02-06T03:26:43.619Z,63.10
2019-02-06T03:29:15.661Z,63.17
2019-02-06T03:31:47.310Z,65.33
2019-02-06T03:34:19.127Z,64.40
2019-02-06T03:36:50.784Z,68.37
2019-02-06T03:39:22.435Z,66.53
2019-02-06T03:41:54.514Z,63.80
2019-02-06T03:44:26.181Z,72.47
2019-02-06T03:46:57.857Z,64.87
2019-02-06T03:49:29.508Z,69.00
2019-02-06T03:52:01.160Z,66.83
2019-02-06T03:54:33.195Z,71.43
2019-02-06T03:57:05.130Z,71.20
2019-02-06T03:59:36.852Z,67.23
2019-02-06T04:02:08.519Z,62.33
2019-02-06T04:04:40.186Z,64.33
2019-02-06T04:07:12.209Z,75.73
2019-02-06T04:09:43.889Z,72.47
2019-02-06T04:12:15.544Z,65.33
2019-02-06T04:14:47.202Z,71.33
2019-02-06T04:17:18.871Z,69.30
2019-02-06T04:19:50.995Z,67.20
2019-02-06T04:22:22.660Z,65.90
2019-02-06T04:24:54.336Z,60.50
2019-02-06T04:27:26.009Z,65.40
2019-02-06T04:29:57.658Z,61.17
2019-02-06T04:32:29.604Z,67.77
2019-02-06T04:35:01.278Z,67.73
2019-02-06T04:37:32.915Z,66.87
2019-02-06T04:40:06.247Z,66.97
2019-02-06T04:42:37.914Z,64.80
2019-02-06T04:45:13.050Z,64.97
2019-02-06T04:47:44.771Z,65.20
2019-02-06T04:50:17.850Z,68.43
2019-02-06T04:52:49.646Z,63.30
2019-02-06T04:55:21.619Z,63.43
2019-02-06T04:57:53.763Z,68.77
2019-02-06T05:00:35.572Z,62.03
2019-02-06T05:03:08.146Z,65.13
2019-02-06T05:05:39.812Z,63.67
2019-02-06T05:08:12.059Z,69.67
2019-02-06T05:10:43.734Z,66.30
2019-02-06T05:13:15.762Z,66.40
2019-02-06T05:15:47.774Z,68.63
2019-02-06T05:18:20.725Z,61.23
2019-02-06T05:20:52.685Z,67.77
2019-02-06T05:23:24.368Z,71.37
2019-02-06T05:25:56.030Z,69.13
2019-02-06T05:28:28.045Z,80.60
2019-02-06T05:31:00.052Z,69.50
2019-02-06T05:33:32.088Z,64.70
2019-02-06T05:36:03.757Z,61.27
2019-02-06T05:38:35.490Z,66.43
2019-02-06T05:41:07.472Z,64.40
2019-02-06T05:43:39.477Z,63.77
2019-02-06T05:46:11.126Z,61.27
2019-02-06T05:48:42.850Z,61.53
2019-02-06T05:51:14.518Z,66.67
2019-02-06T05:53:46.236Z,62.60
2019-02-06T05:56:17.898Z,70.17
2019-02-06T05:58:49.625Z,71.23
2019-02-06T06:01:22.925Z,66.27
2019-02-06T06:03:54.606Z,63.17
2019-02-06T06:06:26.288Z,63.60
2019-02-06T06:08:58.501Z,59.03
2019-02-06T06:11:30.159Z,58.17
2019-02-06T06:14:02.121Z,64.70
2019-02-06T06:16:33.945Z,65.33
2019-02-06T06:19:05.597Z,65.17
2019-02-06T06:21:37.250Z,60.40
2019-02-06T06:24:09.254Z,61.67
2019-02-06T06:26:41.440Z,64.23
2019-02-06T06:29:13.120Z,67.47
2019-02-06T06:31:44.768Z,59.53
2019-02-06T06:34:16.437Z,62.97
2019-02-06T06:36:48.160Z,61.70
2019-02-06T06:39:20.232Z,62.63
2019-02-06T06:41:51.922Z,62.70
2019-02-06T06:44:23.573Z,59.43
2019-02-06T06:46:55.227Z,62.90
2019-02-06T06:49:26.878Z,64.43
2019-02-06T06:51:58.917Z,57.33
2019-02-06T06:54:30.622Z,62.37
2019-02-06T06:57:02.373Z,70.13
2019-02-06T06:59:34.031Z,66.47
2019-02-06T07:02:05.690Z,60.17
2019-02-06T07:04:37.679Z,56.87
2019-02-06T07:07:09.406Z,70.50
2019-02-06T07:09:41.074Z,66.53
2019-02-06T07:12:12.722Z,64.73
2019-02-06T07:14:44.720Z,63.60
2019-02-06T07:17:17.223Z,67.07
2019-02-06T07:19:48.879Z,67.97
2019-02-06T07:22:20.842Z,69.20
2019-02-06T07:24:52.558Z,68.03
2019-02-06T07:27:24.568Z,69.13
2019-02-06T07:29:56.762Z,69.13
2019-02-06T07:32:28.433Z,67.27
2019-02-06T07:35:00.101Z,73.33
2019-02-06T07:37:32.315Z,67.87
2019-02-06T07:40:08.979Z,72.20
2019-02-06T07:42:41.089Z,68.33
2019-02-06T07:45:15.970Z,65.73
2019-02-06T07:47:47.683Z,65.33
2019-02-06T07:50:28.470Z,67.77
2019-02-06T07:53:00.601Z,76.07
2019-02-06T07:55:32.568Z,67.00
2019-02-06T07:58:04.284Z,72.00
2019-02-06T08:00:35.950Z,68.43
2019-02-06T08:03:07.610Z,73.63
2019-02-06T08:05:39.733Z,70.43
2019-02-06T08:08:11.434Z,75.47
2019-02-06T08:10:43.142Z,75.03
2019-02-06T08:13:14.799Z,76.40
2019-02-06T08:15:46.486Z,77.47
2019-02-06T08:18:18.553Z,75.07
2019-02-06T08:20:50.588Z,69.50
2019-02-06T08:23:22.231Z,72.20
2019-02-06T08:25:53.892Z,79.50
2019-02-06T08:28:26.538Z,62.23
2019-02-06T08:30:58.533Z,69.90
2019-02-06T08:33:30.275Z,70.93
2019-02-06T08:36:01.964Z,65.23
2019-02-06T08:38:33.688Z,69.27
2019-02-06T08:41:05.708Z,75.57
2019-02-06T08:43:37.938Z,73.43
2019-02-06T08:46:09.592Z,74.50
2019-02-06T08:48:41.344Z,67.93
2019-02-06T08:51:13.027Z,63.73
2019-02-06T08:53:44.735Z,71.77
2019-02-06T08:56:16.708Z,64.53
2019-02-06T08:58:48.530Z,59.13
2019-02-06T09:01:20.187Z,59.00
2019-02-06T09:03:51.860Z,69.60
2019-02-06T09:06:24.159Z,64.70
2019-02-06T09:08:59.729Z,60.27
2019-02-06T09:11:29.562Z,61.27
2019-02-06T09:14:01.230Z,65.80
2019-02-06T09:16:32.909Z,60.57
2019-02-06T09:19:04.800Z,62.60
2019-02-06T09:21:36.833Z,58.33
2019-02-06T09:24:08.624Z,55.17
2019-02-06T09:26:40.282Z,60.93
2019-02-06T09:29:11.946Z,55.30
2019-02-06T09:31:43.614Z,48.90
2019-02-06T09:34:15.649Z,57.80
2019-02-06T09:36:47.371Z,53.40
2019-02-06T09:39:19.033Z,53.97
2019-02-06T09:41:50.896Z,52.10
2019-02-06T09:44:22.543Z,55.43
2019-02-06T09:46:54.264Z,49.73
2019-02-06T09:49:26.282Z,50.40
2019-02-06T09:51:58.278Z,51.70
2019-02-06T09:54:29.950Z,52.33
2019-02-06T09:57:01.686Z,50.23
2019-02-06T09:59:33.362Z,48.97
2019-02-06T10:02:05.322Z,47.43
2019-02-06T10:04:36.988Z,46.70
2019-02-06T10:07:08.713Z,46.50
2019-02-06T10:09:40.404Z,44.30
2019-02-06T10:12:12.356Z,50.20
2019-02-06T10:14:44.340Z,46.87
2019-02-06T10:17:16.097Z,53.80
2019-02-06T10:19:47.857Z,45.97
2019-02-06T10:22:19.815Z,45.70
2019-02-06T10:24:51.555Z,46.03
2019-02-06T10:27:24.078Z,42.70
2019-02-06T10:29:56.075Z,41.70
2019-02-06T10:32:27.958Z,42.07
2019-02-06T10:34:59.602Z,45.10
2019-02-06T10:37:31.303Z,45.47
2019-02-06T10:40:03.189Z,47.40
2019-02-06T10:42:34.853Z,41.43
2019-02-06T10:45:11.402Z,39.47
2019-02-06T10:47:43.125Z,41.93
2019-02-06T10:50:28.513Z,41.43
2019-02-06T10:53:00.178Z,40.63
2019-02-06T10:55:31.915Z,41.63
2019-02-06T10:58:03.562Z,39.57
2019-02-06T11:00:42.335Z,39.57
2019-02-06T11:03:14.022Z,35.43
2019-02-06T11:05:45.744Z,38.90
2019-02-06T11:08:17.401Z,38.30
2019-02-06T11:10:49.490Z,36.77
2019-02-06T11:13:22.269Z,38.30
2019-02-06T11:15:53.954Z,42.53
2019-02-06T11:18:26.028Z,38.03
2019-02-06T11:20:57.707Z,37.10
2019-02-06T11:23:29.360Z,37.93
2019-02-06T11:26:01.472Z,37.77
2019-02-06T11:28:33.399Z,33.67
2019-02-06T11:31:05.127Z,38.37
2019-02-06T11:33:36.790Z,38.10
2019-02-06T11:36:08.796Z,41.23
2019-02-06T11:38:40.958Z,35.27
2019-02-06T11:41:12.698Z,37.53
2019-02-06T11:43:44.356Z,37.67
2019-02-06T11:46:16.092Z,41.77
2019-02-06T11:48:47.743Z,36.20
2019-02-06T11:51:19.619Z,38.10
2019-02-06T11:53:51.655Z,35.00
2019-02-06T11:56:23.681Z,40.83
2019-02-06T11:58:55.619Z,34.60
2019-02-06T12:01:28.145Z,36.10
2019-02-06T12:04:00.050Z,33.27
2019-02-06T12:06:31.669Z,36.10
2019-02-06T12:09:03.608Z,31.57
2019-02-06T12:11:35.247Z,36.90
2019-02-06T12:14:07.700Z,37.13
2019-02-06T12:16:39.936Z,33.30
2019-02-06T12:19:11.818Z,33.23
2019-02-06T12:21:44.561Z,31.60
2019-02-06T12:24:16.233Z,29.40
2019-02-06T12:26:47.891Z,31.33
2019-02-06T12:29:19.939Z,29.87
2019-02-06T12:31:51.589Z,33.70
2019-02-06T12:34:23.244Z,30.83
2019-02-06T12:36:54.905Z,28.47
2019-02-06T12:39:26.695Z,30.67
2019-02-06T12:41:58.797Z,34.33
2019-02-06T12:44:30.795Z,29.07
2019-02-06T12:47:03.179Z,31.87
2019-02-06T12:49:35.237Z,29.23
2019-02-06T12:52:07.140Z,33.00
2019-02-06T12:54:38.818Z,30.60
2019-02-06T12:57:10.875Z,31.77
2019-02-06T12:59:42.597Z,32.87
2019-02-06T13:02:15.072Z,28.40
2019-02-06T13:04:46.729Z,31.60
2019-02-06T13:07:18.856Z,32.07
2019-02-06T13:09:51.081Z,30.27
2019-02-06T13:12:22.818Z,28.07
2019-02-06T13:14:54.510Z,28.63
2019-02-06T13:17:26.190Z,27.60
2019-02-06T13:19:57.863Z,27.80
2019-02-06T13:22:30.359Z,27.47
2019-02-06T13:25:02.015Z,29.40
2019-02-06T13:27:36.710Z,25.37
2019-02-06T13:30:19.116Z,27.13
2019-02-06T13:32:51.337Z,26.13
2019-02-06T13:35:23.016Z,32.73
2019-02-06T13:37:54.884Z,30.80
2019-02-06T13:40:29.910Z,26.17
2019-02-06T13:43:01.642Z,27.10
2019-02-06T13:45:41.053Z,26.87
2019-02-06T13:48:12.750Z,27.27
2019-02-06T13:50:44.601Z,32.83
2019-02-06T13:53:16.750Z,32.03
2019-02-06T13:55:49.416Z,29.37
2019-02-06T13:58:21.150Z,27.10
2019-02-06T14:00:53.016Z,29.00
2019-02-06T14:03:24.887Z,28.50
2019-02-06T14:05:56.554Z,29.57
2019-02-06T14:08:28.595Z,29.07
2019-02-06T14:11:00.849Z,30.07
2019-02-06T14:13:32.893Z,31.20
2019-02-06T14:16:06.789Z,30.70
2019-02-06T14:18:38.530Z,31.73
2019-02-06T14:21:10.686Z,33.07
2019-02-06T14:23:52.844Z,35.33
2019-02-06T14:26:32.413Z,34.77
2019-02-06T14:29:42.384Z,32.03
2019-02-06T14:32:21.787Z,30.33
2019-02-06T14:35:16.568Z,30.80
2019-02-06T14:38:21.496Z,34.47
2019-02-06T14:41:19.131Z,33.23
2019-02-06T14:44:13.123Z,32.73
2019-02-06T14:46:59.617Z,34.50
2019-02-06T14:50:07.192Z,31.80
2019-02-06T14:52:58.528Z,35.40
2019-02-06T14:55:53.951Z,32.20
2019-02-06T14:58:57.313Z,36.53
2019-02-06T15:02:11.687Z,34.40
2019-02-06T15:05:00.320Z,34.77
2019-02-06T15:07:48.495Z,36.97
2019-02-06T15:10:33.432Z,36.33
2019-02-06T15:13:21.694Z,40.60
2019-02-06T15:16:37.987Z,36.03
2019-02-06T15:19:20.306Z,35.87
2019-02-06T15:22:15.507Z,39.00
2019-02-06T15:25:20.723Z,37.00
2019-02-06T15:28:35.171Z,36.50
2019-02-06T15:31:44.577Z,40.03
2019-02-06T15:34:26.671Z,39.43
2019-02-06T15:37:26.024Z,41.27
2019-02-06T15:40:13.016Z,40.87
2019-02-06T15:43:07.699Z,40.53
2019-02-06T15:46:02.199Z,38.67
2019-02-06T15:48:52.985Z,42.57
2019-02-06T15:51:32.349Z,39.80
2019-02-06T15:54:24.532Z,43.00
2019-02-06T15:57:18.300Z,47.07
2019-02-06T16:00:12.514Z,40.73
2019-02-06T16:03:04.053Z,43.13
2019-02-06T16:06:03.373Z,45.90
2019-02-06T16:08:57.642Z,43.47
2019-02-06T16:11:42.313Z,43.50
2019-02-06T16:14:29.951Z,45.60
2019-02-06T16:17:28.352Z,44.67
2019-02-06T16:20:45.422Z,45.93
2019-02-06T16:23:37.031Z,44.15
2019-02-06T16:26:45.808Z,43.23
2019-02-06T16:29:39.066Z,44.07
2019-02-06T16:32:46.842Z,44.97
2019-02-06T16:35:44.986Z,45.53
2019-02-06T16:38:30.072Z,46.80
2019-02-06T16:41:53.013Z,46.83
2019-02-06T16:44:21.526Z,47.87
2019-02-06T16:47:10.002Z,45.20
2019-02-06T16:50:01.404Z,44.63
2019-02-06T16:53:00.259Z,46.50
2019-02-06T16:55:51.278Z,44.23
2019-02-06T16:58:35.135Z,41.70
2019-02-06T17:01:23.562Z,46.13
2019-02-06T17:04:08.556Z,45.93
2019-02-06T17:06:59.934Z,45.03
2019-02-06T17:09:57.528Z,45.03
2019-02-06T17:13:02.376Z,44.80
2019-02-06T17:15:47.376Z,45.80
2019-02-06T17:18:32.532Z,44.07
2019-02-06T17:21:30.375Z,44.37
2019-02-06T17:24:25.127Z,44.20
2019-02-06T17:27:13.349Z,45.40
2019-02-06T17:30:22.397Z,42.83
2019-02-06T17:33:45.668Z,43.53
2019-02-06T17:36:44.538Z,44.63
2019-02-06T17:39:33.411Z,45.30
2019-02-06T17:42:15.847Z,46.20
2019-02-06T17:45:39.817Z,42.33
2019-02-06T17:48:28.181Z,45.90
2019-02-06T17:51:31.893Z,42.37
2019-02-06T17:54:23.292Z,45.43
2019-02-06T17:56:55.026Z,39.33
2019-02-06T17:59:26.703Z,43.57
2019-02-06T18:01:58.688Z,40.77
2019-02-06T18:04:30.435Z,40.97
2019-02-06T18:07:02.075Z,42.20
2019-02-06T18:09:33.735Z,46.63
2019-02-06T18:12:05.857Z,45.90
2019-02-06T18:14:37.511Z,42.53
2019-02-06T18:17:09.541Z,41.50
2019-02-06T18:19:41.650Z,41.73
2019-02-06T18:22:13.293Z,42.03
2019-02-06T18:24:44.962Z,39.87
2019-02-06T18:27:16.614Z,40.27
2019-02-06T18:29:49.033Z,40.07
2019-02-06T18:32:21.404Z,41.40
2019-02-06T18:34:53.062Z,43.97
2019-02-06T18:37:24.727Z,38.67
2019-02-06T18:39:56.380Z,37.37
2019-02-06T18:42:36.843Z,41.90
2019-02-06T18:45:01.398Z,43.20
2019-02-06T18:47:33.284Z,40.77
2019-02-06T18:50:09.988Z,42.30
2019-02-06T18:52:41.634Z,39.87
2019-02-06T18:55:13.380Z,41.40
2019-02-06T18:57:45.192Z,40.47
2019-02-06T19:00:33.085Z,38.77
2019-02-06T19:03:15.506Z,41.40
2019-02-06T19:05:47.503Z,40.17
2019-02-06T19:08:19.146Z,38.60
2019-02-06T19:10:51.206Z,46.07
2019-02-06T19:13:22.857Z,39.90
2019-02-06T19:15:56.519Z,40.27
2019-02-06T19:18:27.878Z,39.80
2019-02-06T19:20:59.532Z,41.37
2019-02-06T19:23:31.267Z,43.27
2019-02-06T19:26:03.085Z,43.60
2019-02-06T19:28:34.761Z,39.10
2019-02-06T19:31:06.413Z,40.07
2019-02-06T19:33:38.081Z,39.27
2019-02-06T19:36:09.757Z,38.27
2019-02-06T19:38:42.062Z,42.13
2019-02-06T19:41:13.706Z,39.33
2019-02-06T19:43:45.364Z,42.77
2019-02-06T19:46:17.029Z,39.27
2019-02-06T19:48:48.813Z,42.03
2019-02-06T19:51:20.602Z,38.67
2019-02-06T19:53:52.519Z,41.63
2019-02-06T19:56:24.202Z,39.83
2019-02-06T19:58:55.878Z,42.97
2019-02-06T20:01:28.196Z,40.07
2019-02-06T20:03:59.847Z,45.60
2019-02-06T20:06:31.595Z,41.07
2019-02-06T20:09:04.718Z,48.33
2019-02-06T20:11:36.445Z,49.03
2019-02-06T20:14:08.174Z,49.13
2019-02-06T20:16:39.820Z,49.67
2019-02-06T20:19:11.486Z,46.03
2019-02-06T20:21:43.539Z,50.90
2019-02-06T20:24:15.229Z,48.50
2019-02-06T20:26:46.939Z,51.70
2019-02-06T20:29:19.826Z,48.37
2019-02-06T20:31:51.769Z,45.07
2019-02-06T20:34:23.455Z,52.93
2019-02-06T20:36:55.105Z,51.40
2019-02-06T20:39:26.751Z,48.77
2019-02-06T20:41:58.557Z,49.20
2019-02-06T20:44:30.326Z,49.43
2019-02-06T20:47:01.969Z,53.83
2019-02-06T20:49:34.166Z,57.50
2019-02-06T20:52:06.149Z,57.30
2019-02-06T20:54:37.818Z,56.47
2019-02-06T20:57:13.692Z,56.70
2019-02-06T20:59:42.905Z,57.97
2019-02-06T21:02:14.610Z,51.37
2019-02-06T21:04:47.145Z,52.30
2019-02-06T21:07:18.956Z,59.43
2019-02-06T21:09:50.985Z,53.07
2019-02-06T21:12:22.690Z,60.27
2019-02-06T21:14:54.358Z,59.53
2019-02-06T21:17:26.005Z,58.77
2019-02-06T21:19:57.665Z,56.20
2019-02-06T21:22:29.416Z,56.77
2019-02-06T21:25:01.076Z,59.63
2019-02-06T21:27:32.811Z,58.33
2019-02-06T21:30:08.180Z,59.60
2019-02-06T21:32:39.921Z,54.63
2019-02-06T21:35:11.595Z,51.97
2019-02-06T21:37:43.281Z,62.50
2019-02-06T21:40:24.366Z,57.07
2019-02-06T21:42:56.074Z,56.37
2019-02-06T21:45:28.096Z,54.23
2019-02-06T21:48:00.096Z,55.90
2019-02-06T21:50:31.777Z,57.47
2019-02-06T21:53:03.487Z,55.20
2019-02-06T21:55:35.182Z,64.53
2019-02-06T21:58:06.841Z,62.97
2019-02-06T22:00:42.447Z,62.03
2019-02-06T22:03:14.148Z,58.70
2019-02-06T22:05:45.868Z,54.70
2019-02-06T22:08:17.503Z,61.80
2019-02-06T22:10:49.185Z,59.40
2019-02-06T22:13:20.851Z,60.57
2019-02-06T22:15:53.028Z,51.47
2019-02-06T22:18:24.668Z,58.10
2019-02-06T22:20:56.361Z,57.30
2019-02-06T22:23:28.050Z,58.07
2019-02-06T22:25:59.724Z,55.07
2019-02-06T22:28:31.797Z,55.00
2019-02-06T22:31:03.485Z,53.73
2019-02-06T22:33:35.570Z,55.43
2019-02-06T22:36:07.514Z,50.67
2019-02-06T22:38:39.175Z,51.23
2019-02-06T22:41:11.191Z,52.23
2019-02-06T22:43:42.852Z,49.43
2019-02-06T22:46:14.529Z,51.47
2019-02-06T22:48:46.189Z,50.73
2019-02-06T22:51:17.836Z,52.03
2019-02-06T22:53:49.986Z,51.57
2019-02-06T22:56:21.896Z,54.70
2019-02-06T22:58:53.551Z,47.10
2019-02-06T23:01:29.860Z,51.27
2019-02-06T23:04:01.533Z,50.70
2019-02-06T23:06:33.174Z,49.73
2019-02-06T23:09:06.943Z,50.77
2019-02-06T23:11:38.589Z,51.03
2019-02-06T23:14:17.109Z,49.77
2019-02-06T23:16:43.669Z,53.80
2019-02-06T23:19:15.322Z,46.60
2019-02-06T23:21:46.982Z,55.47
2019-02-06T23:24:18.631Z,51.23
2019-02-06T23:26:50.282Z,53.67
2019-02-06T23:29:22.745Z,49.70
2019-02-06T23:31:54.417Z,54.20
2019-02-06T23:34:26.153Z,51.80
2019-02-06T23:36:57.802Z,50.80
2019-02-06T23:39:29.780Z,53.93
2019-02-06T23:42:01.801Z,52.17
2019-02-06T23:44:33.537Z,50.83
2019-02-06T23:47:05.210Z,51.10
2019-02-06T23:49:36.883Z,50.90
2019-02-06T23:52:08.526Z,48.83
2019-02-06T23:54:41.252Z,56.27
2019-02-06T23:57:12.894Z,49.67
2019-02-06T23:59:44.569Z,49.47
